Time;durP1;ratioP1;P1;durP2;ratioP2;P2;SDS_P1;SDS_P2;PMS_P1;PMS_P2;Temp;Humidity;BMP_temperature;BMP_pressure;BME280_temperature;BME280_humidity;BME280_pressure;Samples;Min_cycle;Max_cycle;Signal;HPM_P1;HPM_P2
2021/12/15 00:01:45;;;;;;;;;;;9.10;99.90;;;;;;4989567;28;20067;-68
2021/12/15 00:04:13;;;;;;;;;;;9.10;99.90;;;;;;4989498;28;20077;-68
2021/12/15 00:06:42;;;;;;;;;;;9.10;99.90;;;;;;4989173;28;20068;-68
2021/12/15 00:09:11;;;;;;;;;;;9.10;99.90;;;;;;4989318;28;20060;-68
2021/12/15 00:11:38;;;;;;;;;;;9.10;99.90;;;;;;4987722;28;20088;-69
2021/12/15 00:14:07;;;;;;;;;;;9.10;99.90;;;;;;4989720;28;20061;-69
2021/12/15 00:16:34;;;;;;;;;;;9.10;99.90;;;;;;4988627;28;21125;-69
2021/12/15 00:19:01;;;;;;;;;;;9.10;99.90;;;;;;4988832;28;21112;-69
2021/12/15 00:21:28;;;;;;;;;;;9.10;99.90;;;;;;4989301;28;20061;-69
2021/12/15 00:23:57;;;;;;;;;;;9.10;99.90;;;;;;4989178;28;20068;-68
2021/12/15 00:26:25;;;;;;;;;;;9.10;99.90;;;;;;4988262;28;20067;-69
2021/12/15 00:28:52;;;;;;;;;;;9.10;99.90;;;;;;4988365;28;20051;-69
2021/12/15 00:31:19;;;;;;;;;;;9.10;99.90;;;;;;4988329;28;20144;-68
2021/12/15 00:33:46;;;;;;;;;;;9.00;99.90;;;;;;4989057;28;21139;-69
2021/12/15 00:36:14;;;;;;;;;;;9.00;99.90;;;;;;4988083;28;21121;-68
2021/12/15 00:38:41;;;;;;;;;;;9.00;99.90;;;;;;4987669;28;20062;-69
2021/12/15 00:41:10;;;;;;;;;;;9.00;99.90;;;;;;4989308;28;20162;-69
2021/12/15 00:43:38;;;;;;;;;;;9.00;99.90;;;;;;4987868;28;20124;-69
2021/12/15 00:46:05;;;;;;;;;;;9.10;99.90;;;;;;4987942;28;20069;-68
2021/12/15 00:48:33;;;;;;;;;;;9.10;99.90;;;;;;4987995;28;21046;-68
2021/12/15 00:51:01;;;;;;;;;;;9.00;99.90;;;;;;4988993;28;20068;-68
2021/12/15 00:53:28;;;;;;;;;;;9.00;99.90;;;;;;4988506;28;21204;-69
2021/12/15 00:55:55;;;;;;;;;;;9.00;99.90;;;;;;4988152;28;21171;-69
2021/12/15 00:58:24;;;;;;;;;;;9.00;99.90;;;;;;4988874;28;21026;-68
2021/12/15 01:00:52;;;;;;;;;;;9.00;99.90;;;;;;4989349;28;20060;-68
2021/12/15 01:03:23;;;;;;;;;;;9.00;99.90;;;;;;4987051;28;21435;-69
2021/12/15 01:05:53;;;;;;;;;;;9.00;99.90;;;;;;4988574;28;20069;-68
2021/12/15 01:08:21;;;;;;;;;;;9.10;99.90;;;;;;4987990;28;20075;-68
2021/12/15 01:11:02;;;;;;;;;;;9.00;99.90;;;;;;4988390;28;20171;-69
2021/12/15 01:21:46;;;;;;;;;;;9.00;99.90;;;;;;4982797;28;20077;-69
2021/12/15 01:24:14;;;;;;;;;;;9.00;99.90;;;;;;4984716;28;20061;-70
2021/12/15 01:26:41;;;;;;;;;;;9.00;99.90;;;;;;4983678;28;21156;-70
2021/12/15 01:29:10;;;;;;;;;;;9.00;99.90;;;;;;4967531;28;21068;-70
2021/12/15 01:31:38;;;;;;;;;;;9.00;99.90;;;;;;4968383;28;21189;-69
2021/12/15 01:34:05;;;;;;;;;;;9.00;99.90;;;;;;4967838;28;20069;-70
2021/12/15 01:36:32;;;;;;;;;;;8.90;99.90;;;;;;4966720;28;21119;-70
2021/12/15 01:38:59;;;;;;;;;;;8.90;99.90;;;;;;4967933;28;20076;-70
2021/12/15 01:41:26;;;;;;;;;;;8.90;99.90;;;;;;4968322;28;20078;-69
2021/12/15 01:46:55;;;;;;;;;;;8.90;99.90;;;;;;4983134;28;20056;-71
2021/12/15 01:49:24;;;;;;;;;;;8.90;99.90;;;;;;4984067;28;20140;-69
2021/12/15 01:51:51;;;;;;;;;;;8.90;99.90;;;;;;4968172;28;20180;-70
2021/12/15 01:54:19;;;;;;;;;;;8.90;99.90;;;;;;4984415;28;21096;-70
2021/12/15 01:56:46;;;;;;;;;;;8.90;99.90;;;;;;4967940;28;20064;-70
2021/12/15 01:59:14;;;;;;;;;;;8.90;99.90;;;;;;4967285;28;20091;-69
2021/12/15 02:01:43;;;;;;;;;;;8.90;99.90;;;;;;4967786;28;20084;-70
2021/12/15 02:04:10;;;;;;;;;;;8.90;99.90;;;;;;4967942;28;21052;-70
2021/12/15 02:06:41;;;;;;;;;;;8.90;99.90;;;;;;4967310;28;20194;-70
2021/12/15 02:09:08;;;;;;;;;;;8.90;99.90;;;;;;4967221;28;20295;-69
2021/12/15 02:11:35;;;;;;;;;;;8.90;99.90;;;;;;4970932;28;21060;-70
2021/12/15 02:14:02;;;;;;;;;;;8.90;99.90;;;;;;4987349;28;20068;-70
2021/12/15 02:16:30;;;;;;;;;;;8.90;99.90;;;;;;4984340;28;20068;-69
2021/12/15 02:18:58;;;;;;;;;;;8.90;99.90;;;;;;4986344;28;20093;-69
2021/12/15 02:21:27;;;;;;;;;;;8.90;99.90;;;;;;4986601;28;20084;-69
2021/12/15 02:23:57;;;;;;;;;;;8.90;99.90;;;;;;4987246;28;20075;-70
2021/12/15 02:26:26;;;;;;;;;;;8.80;99.90;;;;;;4984107;28;20092;-70
2021/12/15 02:28:55;;;;;;;;;;;8.70;99.90;;;;;;4986513;28;20118;-70
2021/12/15 02:31:35;;;;;;;;;;;8.70;99.90;;;;;;4984739;28;20195;-70
2021/12/15 02:34:18;;;;;;;;;;;8.70;99.90;;;;;;4986760;28;20059;-70
2021/12/15 02:37:16;;;;;;;;;;;8.70;99.90;;;;;;4987616;28;20173;-70
2021/12/15 02:39:44;;;;;;;;;;;8.70;99.90;;;;;;4986640;28;20308;-70
2021/12/15 02:42:11;;;;;;;;;;;8.70;99.90;;;;;;4985722;28;21197;-70
2021/12/15 02:44:43;;;;;;;;;;;8.70;99.90;;;;;;4982607;28;20126;-70
2021/12/15 02:47:10;;;;;;;;;;;8.70;99.90;;;;;;4980975;28;21188;-70
2021/12/15 02:49:38;;;;;;;;;;;8.70;99.90;;;;;;4976972;28;20084;-70
2021/12/15 02:52:07;;;;;;;;;;;8.70;99.90;;;;;;4978847;28;20085;-70
2021/12/15 02:54:34;;;;;;;;;;;8.70;99.90;;;;;;4986677;28;20104;-69
2021/12/15 02:57:06;;;;;;;;;;;8.70;99.90;;;;;;4986869;28;20064;-70
2021/12/15 02:59:44;;;;;;;;;;;8.70;99.90;;;;;;4984910;28;20074;-69
2021/12/15 03:02:22;;;;;;;;;;;8.60;99.90;;;;;;4984469;28;20084;-70
2021/12/15 03:04:54;;;;;;;;;;;8.60;99.90;;;;;;4982270;28;20085;-70
2021/12/15 03:07:31;;;;;;;;;;;8.60;99.90;;;;;;4986656;28;20100;-70
2021/12/15 03:15:35;;;;;;;;;;;8.50;99.90;;;;;;4980329;28;20072;-70
2021/12/15 03:18:05;;;;;;;;;;;8.50;99.90;;;;;;4989494;28;20177;-69
2021/12/15 03:20:33;;;;;;;;;;;8.50;99.90;;;;;;4990361;28;20067;-70
2021/12/15 03:23:02;;;;;;;;;;;8.50;99.90;;;;;;4990777;28;20069;-70
2021/12/15 03:25:31;;;;;;;;;;;8.50;99.90;;;;;;4990660;28;20077;-69
2021/12/15 03:33:38;;;;;;;;;;;8.50;99.90;;;;;;4991247;28;20063;-69
2021/12/15 03:36:10;;;;;;;;;;;8.50;99.90;;;;;;4990885;28;20265;-69
2021/12/15 03:38:39;;;;;;;;;;;8.50;99.90;;;;;;4989923;28;20149;-69
2021/12/15 03:41:08;;;;;;;;;;;8.50;99.90;;;;;;4990667;28;20069;-69
2021/12/15 03:43:36;;;;;;;;;;;8.50;99.90;;;;;;4989741;28;20068;-70
2021/12/15 03:46:04;;;;;;;;;;;8.50;99.90;;;;;;4989511;28;20107;-70
2021/12/15 03:48:32;;;;;;;;;;;8.50;99.90;;;;;;4989348;28;20069;-69
2021/12/15 03:51:00;;;;;;;;;;;8.50;99.90;;;;;;4989921;28;21055;-69
2021/12/15 03:53:27;;;;;;;;;;;8.50;99.90;;;;;;4990117;28;20142;-69
2021/12/15 03:55:56;;;;;;;;;;;8.50;99.90;;;;;;4989941;28;20167;-69
2021/12/15 03:58:24;;;;;;;;;;;8.50;99.90;;;;;;4989838;28;20068;-69
2021/12/15 04:00:52;;;;;;;;;;;8.50;99.90;;;;;;4989799;28;20069;-69
2021/12/15 04:03:21;;;;;;;;;;;8.50;99.90;;;;;;4989664;28;20059;-69
2021/12/15 04:05:48;;;;;;;;;;;8.50;99.90;;;;;;4990145;28;20076;-70
2021/12/15 04:08:15;;;;;;;;;;;8.50;99.90;;;;;;4989676;28;20157;-69
2021/12/15 04:10:42;;;;;;;;;;;8.40;99.90;;;;;;4990406;28;21250;-69
2021/12/15 04:13:13;;;;;;;;;;;8.40;99.90;;;;;;4989317;28;20068;-69
2021/12/15 04:15:48;;;;;;;;;;;8.40;99.90;;;;;;4989881;28;21035;-70
2021/12/15 04:18:15;;;;;;;;;;;8.40;99.90;;;;;;4989422;28;20060;-69
2021/12/15 04:20:43;;;;;;;;;;;8.40;99.90;;;;;;4988058;28;20075;-69
2021/12/15 04:23:11;;;;;;;;;;;8.40;99.90;;;;;;4988951;28;20150;-70
2021/12/15 04:25:40;;;;;;;;;;;8.40;99.90;;;;;;4988969;28;20108;-70
2021/12/15 04:28:10;;;;;;;;;;;8.40;99.90;;;;;;4989006;28;20330;-70
2021/12/15 04:30:40;;;;;;;;;;;8.40;99.90;;;;;;4988944;28;20060;-70
2021/12/15 04:33:12;;;;;;;;;;;8.40;99.90;;;;;;4986457;28;21050;-70
2021/12/15 04:35:40;;;;;;;;;;;8.40;99.90;;;;;;4988799;28;20235;-69
2021/12/15 04:38:07;;;;;;;;;;;8.30;99.90;;;;;;4989129;28;20068;-69
2021/12/15 04:40:34;;;;;;;;;;;8.30;99.90;;;;;;4989146;28;20059;-69
2021/12/15 04:43:02;;;;;;;;;;;8.30;99.90;;;;;;4988607;28;21015;-69
2021/12/15 04:45:30;;;;;;;;;;;8.30;99.90;;;;;;4986146;28;20066;-70
2021/12/15 04:47:59;;;;;;;;;;;8.20;99.90;;;;;;4987732;28;20258;-69
2021/12/15 04:50:28;;;;;;;;;;;8.20;99.90;;;;;;4975950;28;20101;-69
2021/12/15 04:52:59;;;;;;;;;;;8.20;99.90;;;;;;4995607;28;20091;-68
2021/12/15 04:55:28;;;;;;;;;;;8.20;99.90;;;;;;4986688;28;20077;-68
2021/12/15 04:57:55;;;;;;;;;;;8.10;99.90;;;;;;4987479;28;21321;-68
2021/12/15 05:00:26;;;;;;;;;;;8.10;99.90;;;;;;4988268;28;20096;-69
2021/12/15 05:02:53;;;;;;;;;;;8.10;99.90;;;;;;4988014;28;20100;-69
2021/12/15 05:05:22;;;;;;;;;;;8.10;99.90;;;;;;4987616;28;20060;-69
2021/12/15 05:07:49;;;;;;;;;;;8.10;99.90;;;;;;4989446;28;20075;-69
2021/12/15 05:10:18;;;;;;;;;;;8.10;99.90;;;;;;4987956;28;21173;-69
2021/12/15 05:12:45;;;;;;;;;;;8.10;99.90;;;;;;4984782;28;21192;-69
2021/12/15 05:15:13;;;;;;;;;;;8.10;99.90;;;;;;4986754;28;20102;-70
2021/12/15 05:17:40;;;;;;;;;;;8.10;99.90;;;;;;4986956;28;20068;-69
2021/12/15 05:20:08;;;;;;;;;;;8.10;99.90;;;;;;4984889;28;21160;-69
2021/12/15 05:22:37;;;;;;;;;;;8.10;99.90;;;;;;4986725;28;20086;-70
2021/12/15 05:25:05;;;;;;;;;;;8.10;99.90;;;;;;4982386;28;20069;-70
2021/12/15 05:27:33;;;;;;;;;;;8.10;99.90;;;;;;4987065;28;20076;-70
2021/12/15 05:30:00;;;;;;;;;;;8.10;99.90;;;;;;4985949;28;20158;-70
2021/12/15 05:32:27;;;;;;;;;;;8.10;99.90;;;;;;4988036;28;20092;-70
2021/12/15 05:34:57;;;;;;;;;;;8.10;99.90;;;;;;4988063;28;20157;-70
2021/12/15 05:37:24;;;;;;;;;;;8.10;99.90;;;;;;4987412;28;20159;-71
2021/12/15 05:39:53;;;;;;;;;;;8.10;99.90;;;;;;4986995;28;20085;-71
2021/12/15 05:42:21;;;;;;;;;;;8.10;99.90;;;;;;4987152;28;20060;-69
2021/12/15 05:44:49;;;;;;;;;;;8.10;99.90;;;;;;4985840;28;20077;-70
2021/12/15 05:47:16;;;;;;;;;;;8.10;99.90;;;;;;4984325;28;20085;-70
2021/12/15 05:49:43;;;;;;;;;;;8.10;99.90;;;;;;4986534;28;20077;-71
2021/12/15 05:52:10;;;;;;;;;;;8.10;99.90;;;;;;4987180;28;20082;-70
2021/12/15 05:54:38;;;;;;;;;;;8.10;99.90;;;;;;4987029;28;20069;-71
2021/12/15 05:57:07;;;;;;;;;;;8.10;99.90;;;;;;4986693;28;20068;-71
2021/12/15 05:59:34;;;;;;;;;;;8.10;99.90;;;;;;4986663;28;21143;-71
2021/12/15 06:02:02;;;;;;;;;;;8.10;99.90;;;;;;4981956;28;20077;-70
2021/12/15 06:04:29;;;;;;;;;;;8.10;99.90;;;;;;4988012;28;21257;-70
2021/12/15 06:06:56;;;;;;;;;;;8.10;99.90;;;;;;4986808;28;20094;-70
2021/12/15 06:09:23;;;;;;;;;;;8.10;99.90;;;;;;4985615;28;20158;-70
2021/12/15 06:11:53;;;;;;;;;;;8.20;99.90;;;;;;4994871;28;20263;-70
2021/12/15 06:14:26;;;;;;;;;;;8.20;99.90;;;;;;5003847;28;21073;-70
2021/12/15 06:16:54;;;;;;;;;;;8.20;99.90;;;;;;5002906;28;20066;-70
2021/12/15 06:19:21;;;;;;;;;;;8.20;99.90;;;;;;5002212;28;20093;-70
2021/12/15 06:21:49;;;;;;;;;;;8.20;99.90;;;;;;4987234;28;20069;-70
2021/12/15 06:24:16;;;;;;;;;;;8.30;99.90;;;;;;4986928;28;21185;-70
2021/12/15 06:26:43;;;;;;;;;;;8.20;99.90;;;;;;4986630;28;20100;-70
2021/12/15 06:29:10;;;;;;;;;;;8.20;99.90;;;;;;4986960;28;21157;-70
2021/12/15 06:31:39;;;;;;;;;;;8.20;99.90;;;;;;4986840;28;20060;-70
2021/12/15 06:34:06;;;;;;;;;;;8.20;99.90;;;;;;4986724;28;20069;-70
2021/12/15 06:36:34;;;;;;;;;;;8.20;99.90;;;;;;4986638;28;20085;-70
2021/12/15 06:39:01;;;;;;;;;;;8.30;99.90;;;;;;5003694;28;20186;-70
2021/12/15 06:41:28;;;;;;;;;;;8.30;99.90;;;;;;5002722;28;21145;-71
2021/12/15 06:43:57;;;;;;;;;;;8.30;99.90;;;;;;5004161;28;21110;-70
2021/12/15 06:58:11;;;;;;;;;;;8.20;99.90;;;;;;5003250;28;20063;-69
2021/12/15 07:00:21;;;;;;;;;;;8.10;99.90;;;;;;5003140;28;20068;-67
2021/12/15 07:02:48;;;;;;;;;;;8.10;99.90;;;;;;5003329;28;20069;-67
2021/12/15 07:05:17;;;;;;;;;;;8.10;99.90;;;;;;5003505;28;20075;-66
2021/12/15 07:07:45;;;;;;;;;;;8.10;99.90;;;;;;4993035;28;20085;-69
2021/12/15 07:10:13;;;;;;;;;;;8.10;99.90;;;;;;4987068;28;20084;-70
2021/12/15 07:12:40;;;;;;;;;;;8.00;99.90;;;;;;4989290;28;20068;-70
2021/12/15 07:15:09;;;;;;;;;;;8.00;99.90;;;;;;4987951;28;20076;-69
2021/12/15 07:17:39;;;;;;;;;;;8.00;99.90;;;;;;4986180;28;20070;-70
2021/12/15 07:20:28;;;;;;;;;;;8.00;99.90;;;;;;4986193;28;20179;-70
2021/12/15 07:22:56;;;;;;;;;;;8.00;99.90;;;;;;4985967;28;20083;-70
2021/12/15 07:25:24;;;;;;;;;;;8.00;99.90;;;;;;4986744;28;20069;-68
2021/12/15 07:27:51;;;;;;;;;;;8.00;99.90;;;;;;4986143;28;20284;-68
2021/12/15 07:30:19;;;;;;;;;;;8.00;99.90;;;;;;4986814;28;20076;-69
2021/12/15 07:32:47;;;;;;;;;;;8.00;99.90;;;;;;4986454;28;20068;-69
2021/12/15 07:35:15;;;;;;;;;;;8.10;99.90;;;;;;4987085;28;20069;-68
2021/12/15 07:37:42;;;;;;;;;;;8.10;99.90;;;;;;4985349;28;20099;-68
2021/12/15 07:40:18;;;;;;;;;;;8.10;99.90;;;;;;4986741;28;20060;-68
2021/12/15 07:42:55;;;;;;;;;;;8.10;99.90;;;;;;4985719;28;20077;-68
2021/12/15 07:45:23;;;;;;;;;;;8.10;99.90;;;;;;4984031;28;21247;-67
2021/12/15 07:47:50;;;;;;;;;;;8.10;99.90;;;;;;4981842;28;21087;-68
2021/12/15 07:50:17;;;;;;;;;;;8.20;99.90;;;;;;4988530;28;20075;-71
2021/12/15 07:52:44;;;;;;;;;;;8.20;99.90;;;;;;4989313;28;20068;-69
2021/12/15 07:55:14;;;;;;;;;;;8.20;99.90;;;;;;4990222;28;21148;-69
2021/12/15 07:57:41;;;;;;;;;;;8.20;99.90;;;;;;4989228;28;21256;-70
2021/12/15 08:00:09;;;;;;;;;;;8.20;99.90;;;;;;4984070;28;20068;-69
2021/12/15 08:02:39;;;;;;;;;;;8.20;99.90;;;;;;5006588;28;20092;-69
2021/12/15 08:05:07;;;;;;;;;;;8.20;99.90;;;;;;5000678;22;20076;-71
2021/12/15 08:07:34;;;;;;;;;;;8.30;99.90;;;;;;4997880;28;20150;-72
2021/12/15 08:10:03;;;;;;;;;;;8.30;99.90;;;;;;4983505;28;20082;-72
2021/12/15 08:12:32;;;;;;;;;;;8.30;99.90;;;;;;4983990;28;20077;-72
2021/12/15 08:14:59;;;;;;;;;;;8.30;99.90;;;;;;4987567;28;20178;-70
2021/12/15 08:17:26;;;;;;;;;;;8.30;99.90;;;;;;5009156;28;20075;-72
2021/12/15 08:19:53;;;;;;;;;;;8.30;99.90;;;;;;4992213;28;20082;-72
2021/12/15 08:22:20;;;;;;;;;;;8.40;99.90;;;;;;5004031;28;20068;-70
2021/12/15 08:24:47;;;;;;;;;;;8.40;99.90;;;;;;5023140;28;20254;-71
2021/12/15 08:27:14;;;;;;;;;;;8.40;99.90;;;;;;5023576;28;20073;-72
2021/12/15 08:29:43;;;;;;;;;;;8.40;99.90;;;;;;5023354;28;20131;-72
2021/12/15 08:32:10;;;;;;;;;;;8.40;99.90;;;;;;5023905;28;20091;-72
2021/12/15 08:34:37;;;;;;;;;;;8.50;99.90;;;;;;5007569;28;20205;-72
2021/12/15 08:37:05;;;;;;;;;;;8.50;99.90;;;;;;5023809;28;20051;-72
2021/12/15 08:39:33;;;;;;;;;;;8.50;99.90;;;;;;5023594;28;20144;-72
2021/12/15 08:42:00;;;;;;;;;;;8.60;99.90;;;;;;5007379;28;20060;-72
2021/12/15 08:44:27;;;;;;;;;;;8.70;99.90;;;;;;5023510;28;20051;-72
2021/12/15 08:46:56;;;;;;;;;;;8.60;99.90;;;;;;5027794;28;21039;-72
2021/12/15 08:49:23;;;;;;;;;;;8.70;99.90;;;;;;4987321;28;20052;-72
2021/12/15 08:51:50;;;;;;;;;;;8.70;99.90;;;;;;4987519;28;20067;-72
2021/12/15 08:54:19;;;;;;;;;;;8.70;99.90;;;;;;4987889;28;20066;-73
2021/12/15 08:56:47;;;;;;;;;;;8.70;99.90;;;;;;4986553;28;20404;-72
2021/12/15 08:59:15;;;;;;;;;;;8.80;99.90;;;;;;4990303;28;20085;-72
2021/12/15 09:01:43;;;;;;;;;;;8.80;99.90;;;;;;5002882;28;21269;-72
2021/12/15 09:04:12;;;;;;;;;;;8.80;99.90;;;;;;5005392;28;20068;-73
2021/12/15 09:06:39;;;;;;;;;;;8.80;99.90;;;;;;4921475;28;2229179;-71
2021/12/15 09:09:08;;;;;;;;;;;8.90;99.90;;;;;;4998792;28;20076;-73
2021/12/15 09:11:35;;;;;;;;;;;8.90;99.90;;;;;;5001771;28;20068;-73
2021/12/15 09:14:04;;;;;;;;;;;9.00;99.90;;;;;;5007031;28;20170;-71
2021/12/15 09:16:32;;;;;;;;;;;9.00;99.90;;;;;;5001782;28;20203;-73
2021/12/15 09:19:00;;;;;;;;;;;9.00;99.90;;;;;;5004030;28;20077;-73
2021/12/15 09:21:31;;;;;;;;;;;9.00;99.90;;;;;;5015080;28;20094;-72
2021/12/15 09:23:59;;;;;;;;;;;9.00;99.90;;;;;;5017016;28;20085;-73
2021/12/15 09:26:26;;;;;;;;;;;9.00;99.90;;;;;;4999714;28;20178;-73
2021/12/15 09:28:53;;;;;;;;;;;9.00;99.90;;;;;;5001459;28;20069;-72
2021/12/15 09:31:21;;;;;;;;;;;9.00;99.90;;;;;;5011381;28;20130;-72
2021/12/15 09:33:49;;;;;;;;;;;9.00;99.90;;;;;;4997164;28;20118;-73
2021/12/15 09:36:17;;;;;;;;;;;9.00;99.90;;;;;;5000742;28;20091;-72
2021/12/15 09:38:47;;;;;;;;;;;9.00;99.90;;;;;;5025835;28;20178;-73
2021/12/15 09:41:15;;;;;;;;;;;9.10;99.90;;;;;;5002043;28;21212;-72
2021/12/15 09:43:43;;;;;;;;;;;9.10;99.90;;;;;;5001375;28;20165;-72
2021/12/15 09:46:14;;;;;;;;;;;9.10;99.90;;;;;;5001270;28;20069;-71
2021/12/15 10:02:47;;;;;;;;;;;9.20;99.90;;;;;;5022933;28;20064;-72
2021/12/15 10:05:29;;;;;;;;;;;9.20;99.90;;;;;;5004035;28;20084;-72
2021/12/15 10:10:49;;;;;;;;;;;9.20;99.90;;;;;;4997038;28;20071;-73
2021/12/15 10:18:53;;;;;;;;;;;9.30;99.90;;;;;;4986187;28;20222;-72
2021/12/15 10:21:21;;;;;;;;;;;9.40;99.90;;;;;;4987419;28;20287;-73
2021/12/15 10:23:50;;;;;;;;;;;9.40;99.90;;;;;;4987084;28;20060;-70
2021/12/15 10:26:20;;;;;;;;;;;9.40;99.90;;;;;;4986516;28;20075;-70
2021/12/15 10:28:52;;;;;;;;;;;9.40;99.90;;;;;;4991035;28;20077;-70
2021/12/15 10:31:21;;;;;;;;;;;9.40;99.90;;;;;;5007527;28;20271;-73
2021/12/15 10:33:50;;;;;;;;;;;9.40;99.90;;;;;;5006351;28;20083;-70
2021/12/15 10:36:18;;;;;;;;;;;9.40;99.90;;;;;;5011407;28;21292;-70
2021/12/15 10:38:47;;;;;;;;;;;9.40;99.90;;;;;;5013815;28;20219;-71
2021/12/15 10:41:15;;;;;;;;;;;9.50;99.90;;;;;;5006834;28;20066;-70
2021/12/15 10:43:47;;;;;;;;;;;9.50;99.90;;;;;;5006778;28;20170;-70
2021/12/15 10:46:16;;;;;;;;;;;9.50;99.90;;;;;;4998660;28;21271;-69
2021/12/15 10:48:45;;;;;;;;;;;9.50;99.90;;;;;;4998338;28;21194;-70
2021/12/15 10:51:24;;;;;;;;;;;9.50;99.90;;;;;;5017987;28;20060;-70
2021/12/15 10:53:52;;;;;;;;;;;9.60;99.90;;;;;;5006738;28;20068;-71
2021/12/15 10:56:20;;;;;;;;;;;9.60;99.90;;;;;;4998099;28;20086;-70
2021/12/15 10:58:50;;;;;;;;;;;9.60;99.90;;;;;;5022207;28;20100;-70
2021/12/15 11:01:32;;;;;;;;;;;9.60;99.90;;;;;;5022419;28;20051;-70
2021/12/15 11:04:00;;;;;;;;;;;9.60;99.90;;;;;;5003039;28;20194;-70
2021/12/15 11:06:32;;;;;;;;;;;9.60;99.90;;;;;;5004526;28;20063;-72
2021/12/15 11:09:16;;;;;;;;;;;9.60;99.90;;;;;;5006191;28;20058;-71
2021/12/15 11:11:58;;;;;;;;;;;9.60;99.90;;;;;;5012971;28;20068;-70
2021/12/15 11:14:29;;;;;;;;;;;9.60;99.90;;;;;;5022441;28;20084;-71
2021/12/15 11:17:03;;;;;;;;;;;9.60;99.90;;;;;;5006131;28;20211;-72
2021/12/15 11:19:41;;;;;;;;;;;9.60;99.90;;;;;;5022996;28;20084;-74
2021/12/15 11:22:23;;;;;;;;;;;9.70;99.90;;;;;;5002034;28;20077;-70
2021/12/15 11:24:50;;;;;;;;;;;9.70;99.90;;;;;;4998345;28;20075;-71
2021/12/15 11:27:18;;;;;;;;;;;9.70;99.90;;;;;;5024902;28;20068;-71
2021/12/15 11:29:46;;;;;;;;;;;9.70;99.90;;;;;;5023813;28;20052;-70
2021/12/15 11:32:28;;;;;;;;;;;9.70;99.90;;;;;;5025118;28;20073;-70
2021/12/15 11:35:01;;;;;;;;;;;9.70;99.90;;;;;;5023182;28;20066;-72
2021/12/15 11:37:43;;;;;;;;;;;9.70;99.90;;;;;;5025015;28;20124;-72
2021/12/15 11:40:12;;;;;;;;;;;9.80;99.90;;;;;;4991748;28;20052;-71
2021/12/15 11:42:39;;;;;;;;;;;9.80;99.90;;;;;;5024462;28;20068;-71
2021/12/15 11:45:09;;;;;;;;;;;9.80;99.90;;;;;;5024594;28;20068;-72
2021/12/15 11:47:37;;;;;;;;;;;9.80;99.90;;;;;;5023673;28;20072;-71
2021/12/15 11:50:09;;;;;;;;;;;9.80;99.90;;;;;;4991141;28;20061;-72
2021/12/15 11:52:40;;;;;;;;;;;9.80;99.90;;;;;;5024601;28;21241;-71
2021/12/15 11:55:08;;;;;;;;;;;9.80;99.90;;;;;;5024372;28;20067;-70
2021/12/15 11:57:35;;;;;;;;;;;9.80;99.90;;;;;;5023954;28;20060;-71
2021/12/15 12:00:06;;;;;;;;;;;9.80;99.90;;;;;;5023847;28;21159;-72
2021/12/15 12:02:41;;;;;;;;;;;9.80;99.90;;;;;;5010344;28;20060;-72
2021/12/15 12:05:09;;;;;;;;;;;9.80;99.90;;;;;;5023629;28;20057;-69
2021/12/15 12:07:38;;;;;;;;;;;9.80;99.90;;;;;;4990780;28;20162;-71
2021/12/15 12:10:07;;;;;;;;;;;9.80;99.90;;;;;;4990868;28;20162;-72
2021/12/15 12:12:39;;;;;;;;;;;9.80;99.90;;;;;;4991104;28;20086;-73
2021/12/15 12:15:08;;;;;;;;;;;9.80;99.90;;;;;;4991059;28;20059;-70
2021/12/15 12:17:38;;;;;;;;;;;9.80;99.90;;;;;;5020776;28;21069;-71
2021/12/15 12:20:08;;;;;;;;;;;9.80;99.90;;;;;;5006189;28;20067;-73
2021/12/15 12:22:37;;;;;;;;;;;9.80;99.90;;;;;;5005313;28;20060;-73
2021/12/15 12:25:07;;;;;;;;;;;9.80;99.90;;;;;;5015748;28;20082;-73
2021/12/15 12:27:35;;;;;;;;;;;9.80;99.90;;;;;;5009977;28;20978;-73
2021/12/15 12:30:06;;;;;;;;;;;9.80;99.90;;;;;;5009672;28;20051;-71
2021/12/15 12:32:33;;;;;;;;;;;9.70;99.90;;;;;;5010405;28;20082;-71
2021/12/15 12:35:00;;;;;;;;;;;9.80;99.90;;;;;;5043046;28;21172;-71
2021/12/15 12:37:29;;;;;;;;;;;9.80;99.90;;;;;;5006171;28;20060;-69
2021/12/15 12:39:58;;;;;;;;;;;9.80;99.90;;;;;;5011925;28;20066;-70
2021/12/15 12:42:33;;;;;;;;;;;9.80;99.90;;;;;;5015804;28;20067;-71
2021/12/15 12:45:11;;;;;;;;;;;9.80;99.90;;;;;;5020064;28;21073;-70
2021/12/15 12:47:45;;;;;;;;;;;9.70;99.90;;;;;;4997734;28;20204;-70
2021/12/15 12:50:37;;;;;;;;;;;9.70;99.90;;;;;;5015523;28;21114;-71
2021/12/15 13:01:34;;;;;;;;;;;9.60;99.90;;;;;;4994800;28;20091;-70
2021/12/15 13:04:09;;;;;;;;;;;9.60;99.90;;;;;;4989472;28;21110;-73
2021/12/15 13:06:40;;;;;;;;;;;9.60;99.90;;;;;;4986450;28;21001;-73
2021/12/15 13:09:11;;;;;;;;;;;9.60;99.90;;;;;;4988646;28;20060;-72
2021/12/15 13:11:39;;;;;;;;;;;9.60;99.90;;;;;;5001405;28;20060;-72
2021/12/15 13:14:08;;;;;;;;;;;9.60;99.90;;;;;;5004625;28;20068;-73
2021/12/15 13:16:37;;;;;;;;;;;9.60;99.90;;;;;;4997671;28;20185;-73
2021/12/15 13:19:06;;;;;;;;;;;9.60;99.90;;;;;;5009579;28;20077;-73
2021/12/15 13:21:42;;;;;;;;;;;9.60;99.90;;;;;;5002915;28;20060;-73
2021/12/15 13:28:38;;;;;;;;;;;9.60;99.90;;;;;;5000193;28;21453;-72
2021/12/15 13:30:01;;;;;;;;;;;9.50;99.90;;;;;;4996236;28;20172;-72
2021/12/15 13:32:30;;;;;;;;;;;9.50;99.90;;;;;;4994905;28;21071;-71
2021/12/15 13:34:58;;;;;;;;;;;9.60;99.90;;;;;;4986907;28;20162;-72
2021/12/15 13:37:44;;;;;;;;;;;9.60;99.90;;;;;;4987440;28;21004;-72
2021/12/15 13:40:11;;;;;;;;;;;9.60;99.90;;;;;;4986856;28;20162;-72
2021/12/15 13:43:02;;;;;;;;;;;9.60;99.90;;;;;;4993133;28;21123;-73
2021/12/15 13:45:30;;;;;;;;;;;9.60;99.90;;;;;;4999365;28;20067;-73
2021/12/15 13:47:57;;;;;;;;;;;9.60;99.90;;;;;;5023386;28;20162;-73
2021/12/15 13:50:27;;;;;;;;;;;9.60;99.90;;;;;;5023177;28;20060;-71
2021/12/15 13:52:56;;;;;;;;;;;9.60;99.90;;;;;;5020074;28;20094;-70
2021/12/15 13:55:24;;;;;;;;;;;9.60;99.90;;;;;;4998679;28;20068;-71
2021/12/15 13:58:12;;;;;;;;;;;9.60;99.90;;;;;;4986850;28;20050;-69
2021/12/15 14:00:43;;;;;;;;;;;9.60;99.90;;;;;;4981675;28;20084;-70
2021/12/15 14:03:18;;;;;;;;;;;9.60;99.90;;;;;;4991909;28;20230;-72
2021/12/15 14:05:47;;;;;;;;;;;9.50;99.90;;;;;;5027689;28;21214;-71
2021/12/15 14:08:15;;;;;;;;;;;9.50;99.90;;;;;;4999022;28;21140;-71
2021/12/15 14:11:04;;;;;;;;;;;9.50;99.90;;;;;;4993543;28;21171;-71
2021/12/15 14:13:39;;;;;;;;;;;9.50;99.90;;;;;;4998207;28;20145;-71
2021/12/15 14:16:07;;;;;;;;;;;9.50;99.90;;;;;;4995655;28;20074;-72
2021/12/15 14:18:35;;;;;;;;;;;9.50;99.90;;;;;;4986377;28;20088;-71
2021/12/15 14:21:06;;;;;;;;;;;9.50;99.90;;;;;;4987401;28;20231;-72
2021/12/15 14:23:36;;;;;;;;;;;9.50;99.90;;;;;;4987707;28;20067;-73
2021/12/15 14:26:07;;;;;;;;;;;9.50;99.90;;;;;;4987712;28;20060;-72
2021/12/15 14:28:36;;;;;;;;;;;9.50;99.90;;;;;;4987069;28;20060;-73
2021/12/15 14:31:04;;;;;;;;;;;9.40;99.90;;;;;;4986760;28;20065;-71
2021/12/15 14:33:34;;;;;;;;;;;9.40;99.90;;;;;;4986069;28;20162;-69
2021/12/15 14:36:05;;;;;;;;;;;9.40;99.90;;;;;;4985513;28;20145;-71
2021/12/15 14:38:41;;;;;;;;;;;9.40;99.90;;;;;;4986131;28;20067;-71
2021/12/15 14:41:12;;;;;;;;;;;9.40;99.90;;;;;;4985927;28;20084;-70
2021/12/15 14:43:39;;;;;;;;;;;9.30;99.90;;;;;;4986204;28;20141;-71
2021/12/15 14:46:15;;;;;;;;;;;9.30;99.90;;;;;;4987347;28;20153;-69
2021/12/15 14:48:43;;;;;;;;;;;9.30;99.90;;;;;;5023204;28;20149;-71
2021/12/15 14:51:11;;;;;;;;;;;9.30;99.90;;;;;;4995637;28;20103;-71
2021/12/15 14:53:41;;;;;;;;;;;9.30;99.90;;;;;;5001903;28;20090;-70
2021/12/15 14:56:08;;;;;;;;;;;9.30;99.90;;;;;;5020403;28;21065;-70
2021/12/15 14:58:35;;;;;;;;;;;9.30;99.90;;;;;;5015570;28;21140;-71
2021/12/15 15:01:03;;;;;;;;;;;9.30;99.90;;;;;;5008900;28;21128;-71
2021/12/15 15:03:34;;;;;;;;;;;9.30;99.90;;;;;;5009973;28;21147;-69
2021/12/15 15:06:03;;;;;;;;;;;9.30;99.90;;;;;;5009809;28;20067;-70
2021/12/15 15:08:31;;;;;;;;;;;9.30;99.90;;;;;;5009690;28;20169;-70
2021/12/15 15:11:01;;;;;;;;;;;9.20;99.90;;;;;;5003144;28;20068;-69
2021/12/15 15:13:28;;;;;;;;;;;9.20;99.90;;;;;;4991285;28;20052;-78
2021/12/15 15:15:58;;;;;;;;;;;9.20;99.90;;;;;;4990136;28;20060;-70
2021/12/15 15:18:28;;;;;;;;;;;9.20;99.90;;;;;;4990570;28;20076;-70
2021/12/15 15:20:57;;;;;;;;;;;9.20;99.90;;;;;;4991765;28;20052;-71
2021/12/15 15:23:28;;;;;;;;;;;9.20;99.90;;;;;;4990086;28;20084;-71
2021/12/15 15:25:57;;;;;;;;;;;9.20;99.90;;;;;;4990036;28;20084;-71
2021/12/15 15:28:26;;;;;;;;;;;9.20;99.90;;;;;;4989821;28;20171;-71
2021/12/15 15:30:55;;;;;;;;;;;9.20;99.90;;;;;;4990872;28;20161;-72
2021/12/15 15:33:24;;;;;;;;;;;9.10;99.90;;;;;;4990295;28;21179;-72
2021/12/15 15:35:52;;;;;;;;;;;9.10;99.90;;;;;;4999901;28;20068;-71
2021/12/15 15:38:21;;;;;;;;;;;9.10;99.90;;;;;;4989357;28;21163;-70
2021/12/15 15:40:53;;;;;;;;;;;9.10;99.90;;;;;;4990695;28;21188;-68
2021/12/15 15:43:22;;;;;;;;;;;9.10;99.90;;;;;;5006384;28;21219;-72
2021/12/15 15:45:50;;;;;;;;;;;9.10;99.90;;;;;;5021302;28;20067;-72
2021/12/15 15:48:19;;;;;;;;;;;9.10;99.90;;;;;;5007840;28;20085;-72
2021/12/15 15:50:47;;;;;;;;;;;9.10;99.90;;;;;;5026959;28;20195;-70
2021/12/15 15:53:16;;;;;;;;;;;9.10;99.90;;;;;;5009657;28;20098;-72